Olympic Champion — SYWD — position and weather

sailwx.info

Track history (hours):
 
Tides and Currents Weather Stations Pressure Air Temp Water Temp Dewpoint Dewpoint Depression Visibility Wind Speed Wind Dir Waves Ship Positions

Olympic Champion

Last reported at 2016-Feb-14 13:31 UTC. Time now 2016-Feb-14 14:38 UTC.
Position N 45°04' E 012°42'.

Length 204 m; draft 6.6 m.

Type: Passenger vessel. MMSI: 237280000.

Date/timePositionNaut miles runAvg speedWind from/ knotsBaromVisibWave heightAir tempDewpointWater temp
2016-Feb-14 13:31N 45°04' E 012°42'2020.3
2016-Feb-14 12:32N 45°19' E 012°23'9 8.7
2016-Feb-14 11:32N 45°25' E 012°16'0 0.1
2016-Feb-14 10:34N 45°25' E 012°15'0 0.0
2016-Feb-14 09:32N 45°25' E 012°15'0 0.0
2016-Feb-14 08:34N 45°25' E 012°15'0 0.0
2016-Feb-14 07:33N 45°25' E 012°15'0 0.0
2016-Feb-14 06:33N 45°25' E 012°15'5 4.7
2016-Feb-14 05:33N 45°21' E 012°16'1312.7
2016-Feb-14 04:33N 45°16' E 012°33'1918.9
2016-Feb-14 03:34N 45°06' E 012°56'55219.7
2016-Feb-12 23:33N 38°16' E 021°10'1918.9
2016-Feb-12 22:33N 38°15' E 021°34'  
2016-Feb-09 12:34N 38°15' E 021°33'4 4.0
2016-Feb-09 11:31N 38°16' E 021°38'8 0.6
2016-Feb-08 21:33N 38°16' E 021°28'2322.7
2016-Feb-08 20:33N 38°20' E 020°60'55620.6
2016-Feb-07 17:33N 45°10' E 012°36'1717.0
2016-Feb-07 16:34N 45°21' E 012°17'5 4.9
2016-Feb-07 15:34N 45°25' E 012°15'0 0.0
2016-Feb-07 14:33N 45°25' E 012°15'0 0.0
2016-Feb-07 13:34N 45°25' E 012°15'0 0.0
2016-Feb-07 12:33N 45°25' E 012°15'0 0.0
2016-Feb-07 11:33N 45°25' E 012°15'6 5.8
2016-Feb-07 10:33N 45°20' E 012°19'1110.8
2016-Feb-07 09:33N 45°16' E 012°33'1918.5
2016-Feb-07 08:33N 45°06' E 012°55'54721.7
2016-Feb-06 07:17N 38°18' E 021°03'1723.7
2016-Feb-06 06:34N 38°15' E 021°25'1 0.0
2016-Feb-05 12:34N 38°15' E 021°25'  
Track history (hours):
 
Tides and Currents Weather Stations Pressure Air Temp Water Temp Dewpoint Dewpoint Depression Visibility Wind Speed Wind Dir Waves Ship Positions

Olympic Champion

Last reported at 2016-Feb-14 13:31 UTC. Time now 2016-Feb-14 14:38 UTC.
Position N 45°04' E 012°42'.

Length 204 m; draft 6.6 m.

Type: Passenger vessel. MMSI: 237280000.

Date/timePositionNaut miles runAvg speedWind from/ knotsBaromVisibWave heightAir tempDewpointWater temp
2016-Feb-14 13:31N 45°04' E 012°42'2020.3
2016-Feb-14 12:32N 45°19' E 012°23'9 8.7
2016-Feb-14 11:32N 45°25' E 012°16'0 0.1
2016-Feb-14 10:34N 45°25' E 012°15'0 0.0
2016-Feb-14 09:32N 45°25' E 012°15'0 0.0
2016-Feb-14 08:34N 45°25' E 012°15'0 0.0
2016-Feb-14 07:33N 45°25' E 012°15'0 0.0
2016-Feb-14 06:33N 45°25' E 012°15'5 4.7
2016-Feb-14 05:33N 45°21' E 012°16'1312.7
2016-Feb-14 04:33N 45°16' E 012°33'1918.9
2016-Feb-14 03:34N 45°06' E 012°56'55219.7
2016-Feb-12 23:33N 38°16' E 021°10'1918.9
2016-Feb-12 22:33N 38°15' E 021°34'  
2016-Feb-09 12:34N 38°15' E 021°33'4 4.0
2016-Feb-09 11:31N 38°16' E 021°38'8 0.6
2016-Feb-08 21:33N 38°16' E 021°28'2322.7
2016-Feb-08 20:33N 38°20' E 020°60'55620.6
2016-Feb-07 17:33N 45°10' E 012°36'1717.0
2016-Feb-07 16:34N 45°21' E 012°17'5 4.9
2016-Feb-07 15:34N 45°25' E 012°15'0 0.0
2016-Feb-07 14:33N 45°25' E 012°15'0 0.0
2016-Feb-07 13:34N 45°25' E 012°15'0 0.0
2016-Feb-07 12:33N 45°25' E 012°15'0 0.0
2016-Feb-07 11:33N 45°25' E 012°15'6 5.8
2016-Feb-07 10:33N 45°20' E 012°19'1110.8
2016-Feb-07 09:33N 45°16' E 012°33'1918.5
2016-Feb-07 08:33N 45°06' E 012°55'54721.7
2016-Feb-06 07:17N 38°18' E 021°03'1723.7
2016-Feb-06 06:34N 38°15' E 021°25'1 0.0
2016-Feb-05 12:34N 38°15' E 021°25'  

Dump ship's entire track history